Time;durP1;ratioP1;P1;durP2;ratioP2;P2;SDS_P1;SDS_P2;PMS_P1;PMS_P2;Temp;Humidity;BMP_temperature;BMP_pressure;BME280_temperature;BME280_humidity;BME280_pressure;Samples;Min_cycle;Max_cycle;Signal;HPM_P1;HPM_P2
2021/03/29 00:01:03;;;;;;;9.27;7.77;;;;;;;11.98;59.42;102019.34;5060350;28;20439;-70
2021/03/29 00:03:28;;;;;;;11.23;7.43;;;;;;;11.99;59.48;102023.75;5060188;28;20408;-71
2021/03/29 00:05:54;;;;;;;10.50;7.60;;;;;;;11.79;60.22;102024.09;5077260;28;20422;-71
2021/03/29 00:08:24;;;;;;;10.60;7.13;;;;;;;11.99;60.01;102012.38;5058098;28;20442;-70
2021/03/29 00:10:52;;;;;;;9.10;7.37;;;;;;;12.16;59.56;102015.41;5063683;28;20200;-71
2021/03/29 00:13:18;;;;;;;10.57;7.40;;;;;;;12.11;59.73;102016.19;5064979;28;20817;-71
2021/03/29 00:15:45;;;;;;;11.13;8.10;;;;;;;12.01;59.78;101998.50;5081406;28;20419;-71
2021/03/29 00:18:11;;;;;;;12.03;7.97;;;;;;;12.23;59.25;101996.41;5062079;28;20511;-71
2021/03/29 00:20:40;;;;;;;14.40;8.27;;;;;;;12.02;59.50;101995.06;5067428;28;20403;-70
2021/03/29 00:23:05;;;;;;;9.00;7.70;;;;;;;11.90;60.54;101987.78;5081290;28;20310;-71
2021/03/29 00:25:31;;;;;;;13.70;7.43;;;;;;;11.55;61.14;101979.06;5063682;28;20802;-70
2021/03/29 00:27:57;;;;;;;10.77;7.17;;;;;;;11.70;61.26;101984.66;5063269;28;20188;-70
2021/03/29 00:30:26;;;;;;;9.23;7.10;;;;;;;11.89;60.21;101980.81;5080998;28;20460;-71
2021/03/29 00:32:52;;;;;;;9.77;5.97;;;;;;;12.03;59.92;101973.31;5077239;28;20819;-70
2021/03/29 00:35:19;;;;;;;11.23;6.60;;;;;;;12.10;59.27;101974.34;5061421;28;20414;-70
2021/03/29 00:37:46;;;;;;;9.87;6.40;;;;;;;12.02;59.93;101976.75;5075969;28;20185;-70
2021/03/29 00:40:13;;;;;;;10.47;6.70;;;;;;;11.72;60.64;101980.38;5063766;28;20842;-70
2021/03/29 00:42:39;;;;;;;12.73;6.27;;;;;;;11.97;59.53;101975.75;5081193;28;20411;-70
2021/03/29 00:45:13;;;;;;;10.10;6.13;;;;;;;12.02;59.66;101987.22;5079909;28;20431;-70
2021/03/29 00:47:39;;;;;;;8.00;6.03;;;;;;;12.07;60.37;101995.16;5081121;28;20411;-70
2021/03/29 00:50:12;;;;;;;14.23;7.13;;;;;;;11.92;60.26;101990.41;5080856;28;20489;-70
2021/03/29 00:52:38;;;;;;;9.13;6.40;;;;;;;11.97;60.49;101994.06;5080581;28;20415;-70
2021/03/29 00:55:05;;;;;;;10.00;6.50;;;;;;;12.25;59.05;101992.09;5063028;28;20480;-70
2021/03/29 00:57:31;;;;;;;7.63;6.30;;;;;;;12.34;59.39;101989.72;5063275;28;20177;-71
2021/03/29 00:59:58;;;;;;;9.83;6.27;;;;;;;12.21;59.05;101985.03;5080818;28;20457;-70
2021/03/29 01:02:23;;;;;;;12.80;7.00;;;;;;;12.25;59.12;101984.25;5063637;28;20460;-70
2021/03/29 01:04:48;;;;;;;11.07;6.10;;;;;;;11.57;60.17;101983.47;5061740;28;20709;-71
2021/03/29 01:07:14;;;;;;;11.73;5.97;;;;;;;11.93;59.12;101980.03;5080627;28;20168;-70
2021/03/29 01:09:39;;;;;;;13.20;6.93;;;;;;;11.70;59.69;101974.22;5062768;28;20189;-71
2021/03/29 01:12:06;;;;;;;12.53;6.47;;;;;;;11.98;59.25;101974.06;5079373;28;20208;-70
2021/03/29 01:14:37;;;;;;;12.10;6.43;;;;;;;12.18;58.57;101972.78;5058540;28;20177;-71
2021/03/29 01:17:20;;;;;;;7.90;6.43;;;;;;;12.10;58.60;101969.97;5080386;28;20461;-70
2021/03/29 01:19:45;;;;;;;11.43;6.10;;;;;;;11.87;58.98;101982.47;5079812;28;20495;-71
2021/03/29 01:22:12;;;;;;;8.40;6.30;;;;;;;12.10;58.40;101976.94;5079469;28;20415;-71
2021/03/29 01:25:07;;;;;;;12.83;7.63;;;;;;;11.86;58.47;101978.09;5060913;28;20235;-70
2021/03/29 01:27:38;;;;;;;9.67;6.10;;;;;;;11.87;59.03;101984.22;5042849;28;20391;-72
2021/03/29 01:30:08;;;;;;;9.50;6.80;;;;;;;11.94;58.89;101973.06;5060045;28;20443;-70
2021/03/29 01:32:34;;;;;;;7.00;6.30;;;;;;;12.28;57.55;101968.63;5059888;28;20412;-70
2021/03/29 01:34:59;;;;;;;8.80;6.33;;;;;;;12.27;58.09;101973.00;5045165;28;20439;-70
2021/03/29 01:37:26;;;;;;;12.20;6.50;;;;;;;11.88;58.34;101975.50;5062558;28;20234;-71
2021/03/29 01:39:51;;;;;;;9.13;7.13;;;;;;;11.77;58.72;101964.78;5063187;28;20264;-71
2021/03/29 01:42:17;;;;;;;10.00;6.73;;;;;;;12.16;57.67;101979.69;5061580;28;20470;-70
2021/03/29 01:44:43;;;;;;;9.87;6.53;;;;;;;12.01;57.87;101974.13;5062487;28;20173;-71
2021/03/29 01:47:09;;;;;;;8.97;6.90;;;;;;;12.04;58.03;101977.69;5080403;28;20473;-71
2021/03/29 01:49:35;;;;;;;10.10;7.17;;;;;;;12.19;57.54;101979.78;5079712;28;20412;-71
2021/03/29 01:52:01;;;;;;;11.53;7.53;;;;;;;11.82;58.07;101984.09;5059629;28;20315;-71
2021/03/29 01:54:28;;;;;;;7.90;6.17;;;;;;;11.99;58.04;101984.53;5062675;28;20554;-71
2021/03/29 01:56:53;;;;;;;10.40;6.93;;;;;;;12.02;58.45;101975.91;5062345;28;20204;-71
2021/03/29 01:59:19;;;;;;;9.20;7.07;;;;;;;11.72;58.55;101982.97;5079681;28;20451;-71
2021/03/29 02:01:44;;;;;;;12.37;7.57;;;;;;;11.83;58.60;101979.75;5079038;28;20555;-70
2021/03/29 02:04:10;;;;;;;11.47;7.10;;;;;;;11.91;57.89;101968.63;5079520;28;20177;-70
2021/03/29 02:06:36;;;;;;;12.30;7.37;;;;;;;11.77;58.27;101964.78;5078659;28;20212;-70
2021/03/29 02:09:05;;;;;;;10.43;7.63;;;;;;;12.01;58.34;101959.31;5043031;28;20452;-70
2021/03/29 02:11:31;;;;;;;10.20;7.07;;;;;;;11.89;58.02;101957.28;5058805;28;20861;-71
2021/03/29 02:13:56;;;;;;;11.07;7.50;;;;;;;12.05;57.05;101942.84;5078331;28;20454;-70
2021/03/29 02:16:22;;;;;;;8.27;7.10;;;;;;;12.17;56.94;101949.22;5079644;28;20528;-70
2021/03/29 02:18:50;;;;;;;11.57;9.07;;;;;;;12.03;57.59;101946.28;5063285;28;20176;-71
2021/03/29 02:21:20;;;;;;;11.00;7.30;;;;;;;11.85;57.85;101946.69;5062336;28;20442;-71
2021/03/29 02:23:51;;;;;;;11.70;7.47;;;;;;;11.82;57.78;101950.13;5060504;28;20445;-71
2021/03/29 02:26:20;;;;;;;10.67;7.77;;;;;;;11.97;57.35;101941.78;5078890;28;20466;-71
2021/03/29 02:28:47;;;;;;;8.83;6.63;;;;;;;11.98;56.96;101938.34;5061629;28;20753;-71
2021/03/29 02:31:13;;;;;;;9.73;7.10;;;;;;;11.67;58.00;101949.75;5078812;28;20470;-70
2021/03/29 02:33:39;;;;;;;14.83;7.70;;;;;;;11.78;58.32;101951.81;5078058;28;20443;-71
2021/03/29 02:36:05;;;;;;;9.33;6.93;;;;;;;11.90;57.42;101948.56;5061861;28;20181;-71
2021/03/29 02:38:31;;;;;;;9.93;7.00;;;;;;;12.00;56.99;101947.13;5078869;28;20416;-71
2021/03/29 02:40:56;;;;;;;11.00;8.80;;;;;;;11.78;57.73;101951.81;5061428;28;20426;-70
2021/03/29 02:43:22;;;;;;;9.50;7.00;;;;;;;11.83;56.92;101953.63;5077902;28;20180;-70
2021/03/29 02:46:07;;;;;;;10.00;7.37;;;;;;;12.05;56.86;101948.06;5060779;28;20185;-71
2021/03/29 02:48:38;;;;;;;8.60;6.90;;;;;;;12.08;56.80;101952.50;5078673;28;20407;-71
2021/03/29 02:51:05;;;;;;;12.83;7.70;;;;;;;11.96;57.50;101942.63;5061096;28;20459;-70
2021/03/29 02:53:33;;;;;;;10.00;6.60;;;;;;;11.32;58.91;101949.75;5060221;28;20855;-68
2021/03/29 02:56:03;;;;;;;10.77;7.40;;;;;;;11.62;58.34;101940.09;5078511;28;20498;-71
2021/03/29 02:58:29;;;;;;;10.90;7.33;;;;;;;11.76;58.07;101945.63;5075955;28;20852;-69
2021/03/29 03:00:55;;;;;;;9.57;7.43;;;;;;;11.68;57.64;101952.41;5061523;28;20413;-71
2021/03/29 03:03:20;;;;;;;8.83;7.70;;;;;;;11.58;58.87;101951.31;5077289;28;20192;-71
2021/03/29 03:05:46;;;;;;;11.27;7.33;;;;;;;11.83;57.41;101953.63;5061136;28;20173;-71
2021/03/29 03:08:12;;;;;;;11.57;8.13;;;;;;;11.80;57.44;101947.47;5060520;28;20205;-71
2021/03/29 03:10:37;;;;;;;10.10;6.90;;;;;;;11.61;57.78;101942.66;5060819;28;20498;-71
2021/03/29 03:13:05;;;;;;;8.13;6.63;;;;;;;12.23;56.62;101939.78;5077416;28;20218;-70
2021/03/29 03:15:32;;;;;;;9.57;7.50;;;;;;;11.92;57.22;101939.06;5061437;28;20536;-71
2021/03/29 03:18:00;;;;;;;15.03;7.80;;;;;;;12.03;56.48;101939.34;5078214;28;20496;-71
2021/03/29 03:20:27;;;;;;;9.60;7.50;;;;;;;11.61;57.76;101947.88;5077041;28;20497;-70
2021/03/29 03:22:53;;;;;;;10.30;7.20;;;;;;;11.62;57.86;101949.63;5078381;28;20497;-71
2021/03/29 03:25:21;;;;;;;9.80;7.80;;;;;;;12.06;56.92;101952.47;5077914;28;20482;-70
2021/03/29 03:27:47;;;;;;;11.57;7.13;;;;;;;11.77;57.22;101955.25;5077959;28;20422;-71
2021/03/29 03:30:42;;;;;;;8.10;6.77;;;;;;;11.92;57.13;101953.81;5077425;28;20701;-70
2021/03/29 03:33:10;;;;;;;11.53;7.47;;;;;;;11.72;57.34;101956.84;5074929;28;20185;-71
2021/03/29 03:35:36;;;;;;;10.97;8.03;;;;;;;11.57;58.03;101951.28;5077985;28;20451;-71
2021/03/29 03:38:11;;;;;;;12.13;7.47;;;;;;;11.94;56.94;101966.13;5060573;28;20436;-70
2021/03/29 03:40:38;;;;;;;9.80;7.57;;;;;;;11.85;57.36;101965.00;5077263;28;20470;-70
2021/03/29 03:43:06;;;;;;;9.70;7.40;;;;;;;11.88;57.61;101952.00;5060470;28;20437;-70
2021/03/29 03:45:37;;;;;;;10.93;7.37;;;;;;;12.11;57.16;101953.47;5060098;28;20730;-70
2021/03/29 03:48:02;;;;;;;13.07;7.40;;;;;;;11.98;57.60;101955.75;5060396;28;20812;-71
2021/03/29 03:50:28;;;;;;;8.00;7.20;;;;;;;12.15;57.24;101958.75;5075520;28;20462;-71
2021/03/29 03:52:54;;;;;;;8.87;7.97;;;;;;;12.09;56.67;101955.13;5078062;28;20181;-71
2021/03/29 03:55:20;;;;;;;10.37;7.70;;;;;;;12.09;57.36;101955.13;5077850;28;20553;-71
2021/03/29 03:57:46;;;;;;;10.37;7.20;;;;;;;12.11;56.25;101949.97;5059809;28;20431;-72
2021/03/29 04:00:16;;;;;;;11.43;7.50;;;;;;;12.27;56.25;101964.25;5075678;28;20435;-71
2021/03/29 04:02:44;;;;;;;10.67;7.10;;;;;;;11.53;57.99;101957.22;5060221;28;20183;-70
2021/03/29 04:05:11;;;;;;;8.60;7.60;;;;;;;11.77;56.89;101963.09;5077932;28;20411;-72
2021/03/29 04:07:37;;;;;;;9.90;7.40;;;;;;;11.83;57.07;101958.88;5076298;28;20430;-71
2021/03/29 04:12:56;;;;;;;9.33;7.20;;;;;;;11.83;56.68;101964.09;5060485;28;20315;-72
2021/03/29 04:15:22;;;;;;;9.27;8.20;;;;;;;12.14;56.07;101957.88;5077624;28;20425;-72
2021/03/29 04:17:48;;;;;;;9.20;7.67;;;;;;;11.86;56.29;101970.25;5077880;28;20888;-71
2021/03/29 04:20:14;;;;;;;9.37;7.90;;;;;;;11.67;57.13;101963.69;5079478;28;20438;-71
2021/03/29 04:22:40;;;;;;;10.67;8.30;;;;;;;11.85;57.26;101968.47;5077598;28;20180;-71
2021/03/29 04:25:07;;;;;;;9.23;8.30;;;;;;;11.82;56.87;101973.63;5059877;28;20857;-70
2021/03/29 04:27:33;;;;;;;10.40;8.57;;;;;;;11.92;57.06;101969.50;5077275;28;20176;-71
2021/03/29 04:29:59;;;;;;;9.87;7.43;;;;;;;11.74;57.67;101970.81;5076671;28;20423;-70
2021/03/29 04:32:24;;;;;;;10.90;7.87;;;;;;;11.85;57.23;101978.06;5058965;28;20217;-71
2021/03/29 04:34:50;;;;;;;11.87;7.50;;;;;;;11.91;56.42;101973.00;5078097;28;20418;-70
2021/03/29 04:37:15;;;;;;;20.43;7.50;;;;;;;11.75;57.35;101969.13;5077327;28;20180;-70
2021/03/29 04:39:40;;;;;;;13.23;7.43;;;;;;;11.92;56.67;101972.13;5074767;28;20572;-71
2021/03/29 04:42:06;;;;;;;10.40;8.00;;;;;;;11.84;56.95;101965.81;5077615;28;20173;-71
2021/03/29 04:44:31;;;;;;;8.37;6.83;;;;;;;11.78;56.79;101971.78;5077283;28;20184;-71
2021/03/29 04:46:57;;;;;;;18.30;11.57;;;;;;;11.91;57.66;101973.00;5077432;28;20226;-70
2021/03/29 04:49:22;;;;;;;9.33;6.67;;;;;;;12.03;56.46;101960.25;5074845;28;20185;-71
2021/03/29 04:51:47;;;;;;;8.70;6.60;;;;;;;11.73;58.11;101962.97;5077063;28;20281;-71
2021/03/29 04:54:13;;;;;;;11.90;6.77;;;;;;;11.91;58.27;101966.03;5077236;28;20184;-70
2021/03/29 04:56:38;;;;;;;11.37;6.63;;;;;;;12.03;56.47;101965.47;5079044;28;20256;-71
2021/03/29 04:59:03;;;;;;;7.60;6.50;;;;;;;12.02;56.74;101961.09;5080798;28;20546;-71
2021/03/29 05:01:28;;;;;;;13.33;6.90;;;;;;;11.93;57.50;101971.28;5080720;28;20188;-71
2021/03/29 05:03:54;;;;;;;9.87;6.47;;;;;;;11.80;57.34;101965.75;5081392;28;20173;-71
2021/03/29 05:06:19;;;;;;;14.37;7.53;;;;;;;12.11;55.76;101970.88;5080661;28;20294;-71
2021/03/29 05:08:44;;;;;;;11.37;6.80;;;;;;;11.76;57.17;101963.06;5079323;28;20574;-71
2021/03/29 05:11:11;;;;;;;10.43;7.07;;;;;;;11.86;56.94;101964.16;5062513;28;20207;-72
2021/03/29 05:13:36;;;;;;;8.17;6.80;;;;;;;12.22;55.44;101968.53;5079098;28;20443;-71
2021/03/29 05:16:02;;;;;;;13.47;7.10;;;;;;;11.80;56.67;101984.06;5079350;28;20522;-70
2021/03/29 05:18:27;;;;;;;10.00;6.43;;;;;;;12.10;55.19;101969.97;5079970;28;20270;-71
2021/03/29 05:20:54;;;;;;;9.10;6.43;;;;;;;12.26;55.09;101967.75;5080484;28;20169;-71
2021/03/29 05:23:20;;;;;;;11.80;5.90;;;;;;;12.00;55.58;101972.34;5080219;28;20478;-70
2021/03/29 05:25:45;;;;;;;10.50;6.07;;;;;;;11.99;55.23;101966.25;5080081;28;20470;-71
2021/03/29 05:28:10;;;;;;;7.70;5.77;;;;;;;12.16;54.87;101960.53;5079338;28;20188;-70
2021/03/29 05:30:35;;;;;;;8.13;5.87;;;;;;;11.92;56.06;101964.28;5079732;28;20287;-70
2021/03/29 05:33:02;;;;;;;10.97;7.50;;;;;;;12.17;54.86;101964.91;5079819;28;20207;-70
2021/03/29 05:35:27;;;;;;;9.03;6.00;;;;;;;12.26;54.36;101962.50;5079970;28;20198;-70
2021/03/29 05:37:53;;;;;;;10.63;6.90;;;;;;;11.90;55.39;101963.38;5080667;28;20478;-70
2021/03/29 05:40:19;;;;;;;7.13;5.50;;;;;;;12.10;54.53;101969.97;5079941;28;20264;-70
2021/03/29 05:42:45;;;;;;;11.17;6.10;;;;;;;12.30;54.83;101964.34;5079672;28;20173;-70
2021/03/29 05:45:12;;;;;;;11.93;7.00;;;;;;;12.29;54.22;101973.03;5080193;28;20400;-71
2021/03/29 05:47:38;;;;;;;10.47;6.00;;;;;;;12.35;53.88;101973.16;5079867;28;20175;-71
2021/03/29 05:50:10;;;;;;;8.30;5.90;;;;;;;12.63;53.01;101981.59;5079769;28;20654;-71
2021/03/29 05:52:35;;;;;;;7.97;6.53;;;;;;;12.36;53.31;101982.75;5079996;28;20423;-71
2021/03/29 05:55:01;;;;;;;7.10;6.10;;;;;;;12.44;54.42;101991.66;5081432;28;20513;-71
2021/03/29 05:57:36;;;;;;;10.87;6.77;;;;;;;12.06;54.36;101994.28;5080494;28;20291;-71
2021/03/29 06:00:38;;;;;;;10.53;5.77;;;;;;;12.06;54.54;101989.06;5079954;28;20410;-71
2021/03/29 06:03:36;;;;;;;10.57;6.47;;;;;;;12.64;53.25;101989.47;5079723;28;20410;-71
2021/03/29 06:06:14;;;;;;;9.07;5.90;;;;;;;12.21;55.25;101982.44;5073926;28;20480;-71
2021/03/29 06:08:46;;;;;;;8.70;5.83;;;;;;;12.33;54.16;101977.47;5059676;28;20448;-71
2021/03/29 06:11:38;;;;;;;11.93;6.63;;;;;;;12.49;53.58;101983.03;5065625;28;20459;-71
2021/03/29 06:14:12;;;;;;;8.77;5.60;;;;;;;12.30;53.69;101986.13;5079410;28;20496;-70
2021/03/29 06:16:54;;;;;;;7.93;5.60;;;;;;;12.06;54.18;101981.22;5080266;28;20490;-70
2021/03/29 06:19:43;;;;;;;10.20;6.17;;;;;;;12.17;54.17;101991.06;5081175;28;20435;-71
2021/03/29 06:22:11;;;;;;;9.10;6.20;;;;;;;12.38;53.41;101990.63;5080996;28;20422;-70
2021/03/29 06:24:58;;;;;;;9.80;6.13;;;;;;;12.11;54.42;101995.28;5054670;28;20475;-69
2021/03/29 06:27:26;;;;;;;8.67;5.87;;;;;;;12.21;54.02;101982.44;5047645;28;20676;-70
2021/03/29 06:30:13;;;;;;;9.17;6.10;;;;;;;12.49;53.49;101989.16;5040192;28;20447;-70
2021/03/29 06:33:17;;;;;;;10.57;5.43;;;;;;;12.58;53.22;101988.47;5040397;28;20468;-70
2021/03/29 06:35:51;;;;;;;7.70;5.27;;;;;;;12.58;52.71;101988.47;5040102;28;20846;-70
2021/03/29 06:38:27;;;;;;;12.60;5.07;;;;;;;12.46;53.17;101989.97;5038624;28;20555;-71
2021/03/29 06:40:52;;;;;;;10.13;6.00;;;;;;;13.19;51.55;101974.84;5043940;28;20439;-70
2021/03/29 06:43:31;;;;;;;8.43;6.97;;;;;;;13.14;51.54;101975.63;5041892;28;20450;-70
2021/03/29 06:46:27;;;;;;;8.70;6.03;;;;;;;13.69;49.95;101976.63;5038754;28;20268;-71
2021/03/29 06:48:54;;;;;;;7.77;5.93;;;;;;;13.64;49.74;101966.09;5030260;28;20479;-71
2021/03/29 06:51:24;;;;;;;11.80;6.27;;;;;;;14.08;48.68;101967.63;5038385;28;20469;-71
2021/03/29 06:54:01;;;;;;;9.40;6.03;;;;;;;14.20;48.75;101978.28;5036924;28;20642;-71
2021/03/29 06:56:31;;;;;;;11.40;5.53;;;;;;;14.25;48.97;101978.38;5037858;28;20680;-71
2021/03/29 06:59:08;;;;;;;7.87;5.40;;;;;;;13.97;49.14;101991.06;5053545;28;20418;-72
2021/03/29 07:01:36;;;;;;;8.63;5.73;;;;;;;13.89;49.44;101987.44;5041365;28;20513;-70
2021/03/29 07:04:02;;;;;;;9.40;5.60;;;;;;;13.72;50.06;101993.28;5055319;28;20510;-71
2021/03/29 07:06:29;;;;;;;6.90;5.50;;;;;;;13.67;51.28;101989.72;5043597;28;20841;-71
2021/03/29 07:09:05;;;;;;;8.17;5.60;;;;;;;13.35;52.27;101999.59;5045378;28;20197;-71
2021/03/29 07:11:32;;;;;;;10.87;5.70;;;;;;;13.27;52.89;102002.06;5056936;28;20471;-71
2021/03/29 07:13:58;;;;;;;8.60;5.60;;;;;;;13.72;51.07;102001.16;5041849;28;20448;-71
2021/03/29 07:16:27;;;;;;;6.97;5.63;;;;;;;13.36;52.20;102002.25;5037914;28;20487;-70
2021/03/29 07:19:03;;;;;;;9.90;5.57;;;;;;;13.40;51.48;101993.59;5037394;28;20407;-70
2021/03/29 07:21:29;;;;;;;8.87;5.20;;;;;;;13.87;50.74;101989.13;5037228;28;20810;-72
2021/03/29 07:24:04;;;;;;;13.13;5.57;;;;;;;13.77;51.22;101998.59;5043275;28;20470;-72
2021/03/29 07:26:35;;;;;;;7.97;5.27;;;;;;;14.03;50.03;101995.50;5056548;28;20473;-73
2021/03/29 07:29:19;;;;;;;8.23;5.60;;;;;;;14.61;48.51;101996.38;5057259;28;20434;-71
2021/03/29 07:31:48;;;;;;;11.50;5.47;;;;;;;14.73;48.23;101995.66;5040099;28;20480;-71
2021/03/29 07:34:13;;;;;;;8.73;5.50;;;;;;;13.99;50.20;101994.59;5037787;28;20674;-72
2021/03/29 07:36:50;;;;;;;6.77;5.73;;;;;;;13.75;50.75;102005.56;5037705;28;20509;-70
2021/03/29 07:39:44;;;;;;;9.57;5.30;;;;;;;14.56;48.98;102005.91;5047564;28;20165;-71
2021/03/29 07:42:25;;;;;;;14.43;5.63;;;;;;;16.26;44.97;101998.88;5037592;28;20717;-71
2021/03/29 07:44:57;;;;;;;6.50;5.40;;;;;;;15.26;47.45;102009.38;5037632;28;20418;-73
2021/03/29 07:47:43;;;;;;;8.60;5.60;;;;;;;15.10;47.09;102005.72;5044633;28;20454;-71
2021/03/29 07:50:10;;;;;;;8.77;5.90;;;;;;;14.88;48.10;102009.84;5047036;28;20758;-72
2021/03/29 07:52:43;;;;;;;10.43;6.27;;;;;;;14.48;48.98;102021.53;5056434;28;20873;-70
2021/03/29 07:55:22;;;;;;;10.93;5.60;;;;;;;13.77;50.89;102025.72;5037628;28;20487;-70
2021/03/29 07:57:50;;;;;;;7.40;5.43;;;;;;;13.95;50.65;102021.59;5055050;28;20464;-71
2021/03/29 08:00:25;;;;;;;7.80;5.80;;;;;;;14.41;49.76;102016.19;5057003;28;20408;-71
2021/03/29 08:02:55;;;;;;;11.23;5.70;;;;;;;14.35;50.23;102013.47;5054017;28;20411;-70
2021/03/29 08:05:35;;;;;;;11.70;6.17;;;;;;;15.25;47.90;102020.75;5049792;28;20451;-71
2021/03/29 08:08:03;;;;;;;13.00;5.60;;;;;;;15.29;46.87;102025.22;5038610;28;20510;-72
2021/03/29 08:10:57;;;;;;;13.70;5.87;;;;;;;14.81;48.99;102036.00;5037852;28;20717;-72
2021/03/29 08:13:38;;;;;;;7.63;5.43;;;;;;;14.41;49.95;102029.28;5047850;28;20444;-71
2021/03/29 08:16:20;;;;;;;7.23;5.27;;;;;;;14.51;50.64;102025.09;5058321;28;20414;-71
2021/03/29 08:19:06;;;;;;;10.40;5.63;;;;;;;14.79;49.41;102036.88;5058419;28;20796;-71
2021/03/29 08:21:49;;;;;;;5.83;5.10;;;;;;;14.40;50.24;102045.91;5057337;28;20371;-71
2021/03/29 08:24:24;;;;;;;11.83;6.00;;;;;;;14.78;49.79;102053.47;5054989;28;20446;-72
2021/03/29 08:26:51;;;;;;;12.50;6.50;;;;;;;14.72;49.35;102049.03;5077275;28;20396;-73
2021/03/29 08:29:21;;;;;;;8.00;5.83;;;;;;;14.39;50.96;102055.50;5073416;28;20515;-71
2021/03/29 08:32:16;;;;;;;10.20;5.70;;;;;;;13.88;51.68;102061.69;5064094;28;20437;-72
2021/03/29 08:34:51;;;;;;;8.73;6.10;;;;;;;14.03;52.24;102059.34;5076599;28;20485;-71
2021/03/29 08:37:41;;;;;;;9.20;5.73;;;;;;;14.15;51.68;102056.00;5060530;28;20480;-72
2021/03/29 08:40:14;;;;;;;11.83;5.93;;;;;;;14.15;51.62;102051.66;5068900;28;20701;-72
2021/03/29 08:42:41;;;;;;;8.47;5.73;;;;;;;14.23;51.31;102062.25;5060624;28;20767;-73
2021/03/29 08:45:12;;;;;;;11.47;6.33;;;;;;;14.18;51.72;102070.91;5061036;28;20435;-72
2021/03/29 08:47:40;;;;;;;11.23;6.10;;;;;;;14.51;50.67;102070.56;5064954;28;20684;-73
2021/03/29 08:50:13;;;;;;;7.73;6.20;;;;;;;14.12;51.16;102074.34;5061460;28;20738;-73
2021/03/29 08:53:00;;;;;;;8.57;5.87;;;;;;;14.57;49.86;102062.78;5067763;28;20455;-73
2021/03/29 08:55:32;;;;;;;9.63;7.27;;;;;;;14.87;49.67;102065.84;5060306;28;20808;-74
2021/03/29 08:57:58;;;;;;;7.37;6.13;;;;;;;14.85;50.27;102070.19;5060530;28;20394;-74
2021/03/29 09:00:25;;;;;;;7.67;5.70;;;;;;;14.52;50.16;102066.19;5060725;28;20431;-73
2021/03/29 09:02:51;;;;;;;11.90;7.10;;;;;;;15.11;49.66;102057.38;5060453;28;20197;-73
2021/03/29 09:05:18;;;;;;;10.67;7.97;;;;;;;15.63;48.07;102067.59;5060972;28;20521;-75
2021/03/29 09:07:46;;;;;;;10.03;6.37;;;;;;;15.00;48.86;102067.75;5060798;28;20212;-74
2021/03/29 09:10:17;;;;;;;10.77;6.40;;;;;;;14.62;49.50;102068.09;5064344;28;20691;-74
2021/03/29 09:12:44;;;;;;;9.20;6.17;;;;;;;14.85;49.67;102072.81;5060779;28;20433;-74
2021/03/29 09:15:16;;;;;;;9.53;5.90;;;;;;;15.11;48.77;102081.03;5051595;28;20965;-71
2021/03/29 09:17:43;;;;;;;8.20;6.37;;;;;;;15.53;48.67;102078.88;5061622;28;20513;-71
2021/03/29 09:20:26;;;;;;;9.67;6.20;;;;;;;15.91;47.22;102078.41;5060014;28;20566;-70
2021/03/29 09:22:52;;;;;;;10.43;6.30;;;;;;;15.63;47.76;102081.63;5060258;28;20423;-71
2021/03/29 09:25:26;;;;;;;12.20;5.60;;;;;;;15.80;47.40;102092.34;5054114;28;20952;-72
2021/03/29 09:28:17;;;;;;;9.50;6.07;;;;;;;16.04;47.26;102098.69;5059695;28;20179;-70
2021/03/29 09:30:48;;;;;;;9.27;6.70;;;;;;;16.14;47.11;102105.81;5059703;28;20471;-73
2021/03/29 09:33:14;;;;;;;9.23;5.63;;;;;;;16.73;45.33;102105.34;5075213;28;20417;-74
2021/03/29 09:35:40;;;;;;;10.50;6.17;;;;;;;17.13;44.39;102100.28;5062536;28;20411;-69
2021/03/29 09:38:05;;;;;;;10.57;7.03;;;;;;;17.95;42.89;102101.41;5079647;28;20430;-70
2021/03/29 09:40:36;;;;;;;9.67;6.10;;;;;;;18.09;42.18;102108.44;5062746;28;20541;-70
2021/03/29 09:43:02;;;;;;;6.40;5.53;;;;;;;17.37;43.82;102110.03;5078996;28;20173;-70
2021/03/29 09:45:29;;;;;;;8.90;6.17;;;;;;;17.20;44.21;102117.00;5079782;28;20507;-70
2021/03/29 09:48:06;;;;;;;6.97;5.63;;;;;;;17.70;43.05;102113.66;5079987;28;20423;-68
2021/03/29 09:50:39;;;;;;;11.50;6.43;;;;;;;17.30;43.52;102108.25;5079394;28;20446;-70
2021/03/29 09:53:12;;;;;;;8.83;6.60;;;;;;;17.75;43.17;102106.63;5079475;28;20416;-70
2021/03/29 09:55:50;;;;;;;9.60;6.30;;;;;;;17.11;44.55;102121.34;5079552;28;20764;-68
2021/03/29 09:58:28;;;;;;;7.27;5.97;;;;;;;17.70;43.51;102112.75;5077096;28;20728;-70
2021/03/29 10:00:56;;;;;;;7.07;6.23;;;;;;;17.60;43.19;102107.50;5079343;28;20415;-71
2021/03/29 10:03:22;;;;;;;9.00;6.10;;;;;;;17.36;43.62;102112.66;5079000;28;20411;-71
2021/03/29 10:05:49;;;;;;;9.87;5.90;;;;;;;18.67;40.86;102111.03;5077499;28;20502;-72
2021/03/29 10:08:31;;;;;;;8.30;5.50;;;;;;;19.52;38.80;102112.50;5078421;28;20443;-71
2021/03/29 10:11:01;;;;;;;6.73;6.03;;;;;;;19.75;38.38;102112.34;5077702;28;20426;-72
2021/03/29 10:13:31;;;;;;;6.13;5.20;;;;;;;21.41;35.64;102119.59;5079059;28;20418;-70
2021/03/29 10:15:58;;;;;;;10.00;6.43;;;;;;;21.18;36.03;102125.19;5080632;28;20423;-69
2021/03/29 10:18:30;;;;;;;7.47;5.70;;;;;;;21.95;35.05;102117.97;5078938;28;20447;-71
2021/03/29 10:21:03;;;;;;;8.07;6.90;;;;;;;21.48;34.72;102123.03;5076779;28;20850;-70
2021/03/29 10:23:30;;;;;;;9.40;6.20;;;;;;;21.98;34.65;102113.44;5077497;28;20468;-69
2021/03/29 10:26:24;;;;;;;8.37;6.40;;;;;;;22.29;33.22;102104.97;5078743;28;20465;-68
2021/03/29 10:28:58;;;;;;;8.47;5.67;;;;;;;21.66;35.15;102112.19;5078775;28;20427;-68
2021/03/29 10:31:24;;;;;;;11.10;6.80;;;;;;;22.42;33.91;102102.13;5078767;28;20462;-68
2021/03/29 10:33:50;;;;;;;7.97;6.37;;;;;;;21.60;35.50;102108.75;5077271;28;20715;-68
2021/03/29 10:36:17;;;;;;;10.87;5.80;;;;;;;20.46;37.27;102121.53;5078718;28;20176;-69
2021/03/29 10:38:43;;;;;;;8.10;6.10;;;;;;;21.31;35.92;102115.28;5079012;28;20169;-68
2021/03/29 10:41:09;;;;;;;7.40;5.50;;;;;;;21.80;35.23;102113.75;5077547;28;20442;-69
2021/03/29 10:43:38;;;;;;;8.53;5.87;;;;;;;21.16;36.53;102129.63;5075508;28;20443;-69
2021/03/29 10:46:04;;;;;;;7.80;5.83;;;;;;;22.17;34.80;102102.53;5078600;28;20442;-69
2021/03/29 10:48:29;;;;;;;9.23;6.20;;;;;;;20.97;36.88;102116.63;5077637;28;20446;-66
2021/03/29 10:50:54;;;;;;;8.80;5.60;;;;;;;20.89;36.95;102110.53;5075244;28;20248;-70
2021/03/29 10:53:20;;;;;;;6.90;5.57;;;;;;;21.78;35.39;102111.09;5074774;28;20268;-69
2021/03/29 10:55:45;;;;;;;8.50;5.87;;;;;;;22.50;34.32;102106.41;5076565;28;20189;-70
2021/03/29 10:58:10;;;;;;;6.80;6.10;;;;;;;22.14;34.76;102113.22;5075828;28;20253;-69
2021/03/29 11:00:36;;;;;;;10.47;6.40;;;;;;;22.16;35.10;102122.03;5074683;28;20185;-69
2021/03/29 11:03:01;;;;;;;7.20;6.03;;;;;;;22.57;33.79;102116.91;5077585;28;20542;-69
2021/03/29 11:05:26;;;;;;;7.77;5.70;;;;;;;21.50;36.34;102116.81;5076308;28;20440;-69
2021/03/29 11:07:52;;;;;;;9.40;6.43;;;;;;;21.01;36.86;102120.97;5077040;28;20177;-68
2021/03/29 11:10:17;;;;;;;6.30;5.50;;;;;;;20.66;37.52;102116.03;5073531;28;20184;-68
2021/03/29 11:12:43;;;;;;;7.50;6.00;;;;;;;21.27;37.24;102126.84;5074072;28;20217;-69
2021/03/29 11:15:09;;;;;;;7.27;6.43;;;;;;;21.25;37.00;102123.34;5078004;28;20173;-70
2021/03/29 11:17:37;;;;;;;8.90;6.20;;;;;;;21.11;37.32;102127.03;5058055;28;20185;-70
2021/03/29 11:20:04;;;;;;;8.70;5.97;;;;;;;22.39;35.34;102121.66;5075741;28;20177;-69
2021/03/29 11:22:30;;;;;;;7.57;5.63;;;;;;;22.41;34.52;102125.16;5077872;28;20422;-71
2021/03/29 11:24:55;;;;;;;8.97;5.90;;;;;;;22.13;35.63;102122.94;5060302;28;20887;-71
2021/03/29 11:27:20;;;;;;;6.90;6.13;;;;;;;22.13;35.93;102128.25;5076979;28;20790;-72
2021/03/29 11:29:46;;;;;;;8.23;6.30;;;;;;;22.31;35.37;102128.84;5076535;28;20188;-71
2021/03/29 11:32:11;;;;;;;7.20;5.90;;;;;;;22.87;34.29;102126.97;5074828;28;20550;-70
2021/03/29 11:34:36;;;;;;;8.13;6.23;;;;;;;22.32;34.64;102130.59;5077402;28;20204;-69
2021/03/29 11:37:02;;;;;;;8.87;6.10;;;;;;;22.15;35.37;102147.72;5077012;28;20269;-68